Список аэропортов
Фактическая погода:

24 мая, 15:50
Температура: +24°C (+24.0*)
Ветер: западный 5 м/с
Давление: *763 мм
Без существ. явл.
Время (МСК)Темп. СВетерВлажностьДавлениеОблачностьОсадки
15:00+24З, 6 м/с57%1017 гПас прояснениями
16:00+24З, 7 м/с56%1017 гПаоблачно
17:00+23З, 7 м/с58%1016 гПаоблачно
18:00+24З, 7 м/с50%1016 гПаоблачно
19:00+23З, 7 м/с46%1016 гПаясно
20:00+22З, 6 м/с52%1015 гПаясно
21:00+21З, 5 м/с61%1016 гПамалооблачно
22:00+20З, 5 м/с68%1016 гПас прояснениями
23:00+20З, 4 м/с72%1016 гПаоблачно
25 мая
00:00+19З, 3 м/с75%1016 гПаоблачно
01:00+19З, 3 м/с76%1016 гПаоблачно
02:00+18З, 4 м/с81%1016 гПаоблачно
03:00+18З, 4 м/с85%1016 гПаоблачно
04:00+18З, 3 м/с84%1015 гПаоблачно
05:00+19З, 4 м/с80%1015 гПаоблачно
06:00+18СЗ, 4 м/с78%1014 гПаоблачно
07:00+18СЗ, 4 м/с77%1014 гПаоблачно
08:00+18С, 3 м/с74%1014 гПаоблачно
09:00+19С, 2 м/с72%1014 гПаоблачно
10:00+21С, 2 м/с63%1014 гПаоблачно
11:00+24С, 2 м/с48%1014 гПаоблачно
12:00+26С, 2 м/с44%1014 гПамалооблачно
13:00+26СЗ, 2 м/с46%1014 гПаясно
14:00+26СЗ, 1 м/с51%1014 гПамалооблачносл. дождь
15:00+26ЮЗ, 2 м/с54%1014 гПамалооблачносл. дождь
16:00+26ЮЗ, 3 м/с55%1014 гПамалооблачносл. дождь
17:00+25З, 3 м/с55%1014 гПамалооблачно
18:00+26СЗ, 2 м/с44%1013 гПамалооблачно
19:00+27С, 7 м/с28%1013 гПас прояснениями
20:00+25С, 8 м/с28%1013 гПаясно
21:00+24С, 8 м/с30%1013 гПаясно
22:00+23С, 8 м/с32%1014 гПаясно
23:00+21С, 7 м/с34%1015 гПаясно
26 мая
00:00+20СВ, 7 м/с37%1016 гПаясно
01:00+19СВ, 7 м/с38%1016 гПаясно
02:00+18СВ, 6 м/с42%1016 гПаясно
03:00+18С, 4 м/с47%1017 гПаясно
04:00+16С, 4 м/с51%1017 гПамалооблачно
05:00+16С, 4 м/с54%1017 гПамалооблачно
06:00+15С, 4 м/с59%1017 гПамалооблачно
07:00+15С, 4 м/с61%1017 гПамалооблачно
08:00+16С, 4 м/с59%1017 гПаясно
09:00+18С, 5 м/с50%1017 гПаясно
10:00+21С, 6 м/с42%1017 гПаясно
11:00+23С, 6 м/с37%1017 гПаясно
12:00+24С, 5 м/с35%1017 гПаясно
13:00+26СВ, 5 м/с32%1017 гПаясно
14:00+27СВ, 6 м/с27%1017 гПаясно
15:00+28СВ, 5 м/с26%1016 гПаясно